createdAt,value
2022-10-22T00:04:58.032Z,16.02
2022-10-22T00:10:04.015Z,11.98
2022-10-22T00:15:09.189Z,9.52
2022-10-22T00:20:13.499Z,13.35
2022-10-22T00:25:19.082Z,13.73
2022-10-22T00:30:23.413Z,18.27
2022-10-22T00:35:27.431Z,11.20
2022-10-22T00:40:33.000Z,11.32
2022-10-22T00:45:37.495Z,11.70
2022-10-22T00:50:44.833Z,12.15
2022-10-22T00:55:54.248Z,11.02
2022-10-22T01:00:59.214Z,13.00
2022-10-22T01:06:06.366Z,10.85
2022-10-22T01:11:21.033Z,11.48
2022-10-22T01:16:35.363Z,11.85
2022-10-22T01:21:45.179Z,10.63
2022-10-22T01:27:13.145Z,11.15
2022-10-22T01:32:21.750Z,14.55
2022-10-22T01:37:30.785Z,10.82
2022-10-22T01:42:35.082Z,12.18
2022-10-22T01:47:50.548Z,15.27
2022-10-22T01:53:12.844Z,15.18
2022-10-22T01:58:30.061Z,13.55
2022-10-22T02:03:42.063Z,12.60
2022-10-22T02:08:47.468Z,11.48
2022-10-22T02:13:55.752Z,10.48
2022-10-22T02:19:05.551Z,14.95
2022-10-22T02:24:10.314Z,13.77
2022-10-22T02:29:20.078Z,10.25
2022-10-22T02:34:31.534Z,12.00
2022-10-22T02:39:39.781Z,10.32
2022-10-22T02:44:44.419Z,11.60
2022-10-22T02:49:49.895Z,16.15
2022-10-22T02:54:54.225Z,15.45
2022-10-22T02:59:58.167Z,13.20
2022-10-22T03:05:03.780Z,14.35
2022-10-22T03:10:08.746Z,22.77
2022-10-22T03:15:12.670Z,15.15
2022-10-22T03:20:18.083Z,11.00
2022-10-22T03:25:26.551Z,11.00
2022-10-22T03:30:33.647Z,13.93
2022-10-22T03:35:44.777Z,12.82
2022-10-22T03:40:49.401Z,21.02
2022-10-22T03:45:53.622Z,37.30
2022-10-22T03:51:00.391Z,23.83
2022-10-22T03:56:04.833Z,15.40
2022-10-22T04:01:12.003Z,15.02
2022-10-22T04:06:18.150Z,14.38
2022-10-22T04:11:22.645Z,16.15
2022-10-22T04:16:31.172Z,10.25
2022-10-22T04:21:38.837Z,21.67
2022-10-22T04:26:43.212Z,35.50
2022-10-22T04:31:47.389Z,20.20
2022-10-22T04:36:52.838Z,12.48
2022-10-22T04:41:57.319Z,10.85
2022-10-22T04:47:01.552Z,11.43
2022-10-22T04:52:07.652Z,15.55
2022-10-22T04:57:11.853Z,13.48
2022-10-22T05:02:17.490Z,18.20
2022-10-22T05:07:24.818Z,12.52
2022-10-22T05:12:31.361Z,18.40
2022-10-22T05:17:38.946Z,34.85
2022-10-22T05:22:45.530Z,16.25
2022-10-22T05:27:51.313Z,27.88
2022-10-22T05:32:56.011Z,47.55
2022-10-22T05:38:01.613Z,44.30
2022-10-22T05:43:05.692Z,35.03
2022-10-22T05:48:11.782Z,35.10
2022-10-22T05:53:18.773Z,40.85
2022-10-22T05:58:23.019Z,28.90
2022-10-22T06:03:29.079Z,43.72
2022-10-22T06:08:35.220Z,39.45
2022-10-22T06:13:40.045Z,25.83
2022-10-22T06:18:44.336Z,49.83
2022-10-22T06:23:50.685Z,47.83
2022-10-22T06:28:55.936Z,50.72
2022-10-22T06:34:00.360Z,49.67
2022-10-22T06:39:07.456Z,55.08
2022-10-22T06:44:15.712Z,37.70
2022-10-22T06:49:20.590Z,55.50
2022-10-22T06:54:26.003Z,33.72
2022-10-22T06:59:30.030Z,20.42
2022-10-22T07:04:36.371Z,29.75
2022-10-22T07:09:41.834Z,33.58
2022-10-22T07:14:46.030Z,22.90
2022-10-22T07:19:51.289Z,18.38
2022-10-22T07:25:01.607Z,16.92
2022-10-22T07:30:09.769Z,11.82
2022-10-22T07:35:16.999Z,12.88
2022-10-22T07:40:24.871Z,12.18
2022-10-22T07:45:29.143Z,11.70
2022-10-22T07:50:33.153Z,10.38
2022-10-22T07:55:39.086Z,9.15
2022-10-22T08:00:43.668Z,13.30
2022-10-22T08:05:47.894Z,10.32
2022-10-22T08:10:58.707Z,12.55
2022-10-22T08:16:03.679Z,10.50
2022-10-22T08:21:08.143Z,8.88
2022-10-22T08:26:13.620Z,10.85
2022-10-22T08:31:17.643Z,9.50
2022-10-22T08:36:22.086Z,14.25
2022-10-22T08:41:27.870Z,12.20
2022-10-22T08:46:46.026Z,11.13
2022-10-22T08:51:50.599Z,8.23
2022-10-22T08:57:13.733Z,10.13
2022-10-22T09:02:35.550Z,11.80
2022-10-22T09:07:50.056Z,8.48
2022-10-22T09:12:57.802Z,8.73
2022-10-22T09:18:15.854Z,12.55
2022-10-22T09:23:30.928Z,7.65
2022-10-22T09:28:37.985Z,5.15
2022-10-22T09:33:43.186Z,6.80
2022-10-22T09:38:48.896Z,7.18
2022-10-22T09:43:56.361Z,6.88
2022-10-22T09:49:07.787Z,4.43
2022-10-22T09:54:17.757Z,7.65
2022-10-22T09:59:30.811Z,6.90
2022-10-22T10:04:39.735Z,5.13
2022-10-22T10:15:01.181Z,5.20
2022-10-22T10:20:18.302Z,5.97
2022-10-22T10:25:35.722Z,5.47
2022-10-22T10:30:52.260Z,3.55
2022-10-22T10:36:05.168Z,10.50
2022-10-22T10:41:20.068Z,5.70
2022-10-22T10:46:36.922Z,4.03
2022-10-22T10:51:51.562Z,7.47
2022-10-22T10:57:01.921Z,4.90
2022-10-22T11:02:33.630Z,4.00
2022-10-22T11:07:51.049Z,8.05
2022-10-22T11:13:04.531Z,5.45
2022-10-22T11:18:19.198Z,4.53
2022-10-22T11:23:30.214Z,4.97
2022-10-22T11:28:39.195Z,6.20
2022-10-22T11:33:54.598Z,3.55
2022-10-22T11:39:05.575Z,11.98
2022-10-22T11:44:11.998Z,4.38
2022-10-22T11:49:25.587Z,3.58
2022-10-22T11:54:43.023Z,5.25
2022-10-22T11:59:51.754Z,5.10
2022-10-22T12:05:33.708Z,7.00
2022-10-22T12:10:56.785Z,3.92
2022-10-22T12:16:04.879Z,5.80
2022-10-22T12:21:14.950Z,5.80
2022-10-22T12:26:34.813Z,5.80
2022-10-22T12:31:41.709Z,11.07
2022-10-22T12:36:50.782Z,13.88
2022-10-22T12:41:55.058Z,6.20
2022-10-22T12:46:59.646Z,7.93
2022-10-22T12:52:10.963Z,13.18
2022-10-22T12:57:19.574Z,6.85
2022-10-22T13:02:25.671Z,5.68
2022-10-22T13:07:39.914Z,11.75
2022-10-22T13:12:46.379Z,8.15
2022-10-22T13:17:51.034Z,9.38
2022-10-22T13:23:00.449Z,9.52
2022-10-22T13:28:22.747Z,16.33
2022-10-22T13:33:32.274Z,7.45
2022-10-22T13:38:37.661Z,6.32
2022-10-22T13:43:41.685Z,17.75
2022-10-22T13:48:46.565Z,6.90
2022-10-22T13:53:54.113Z,5.43
2022-10-22T13:58:58.808Z,5.63
2022-10-22T14:04:03.242Z,11.95
2022-10-22T14:09:15.134Z,10.00
2022-10-22T14:14:19.748Z,6.32
2022-10-22T14:19:23.833Z,16.55
2022-10-22T14:24:29.300Z,25.42
2022-10-22T14:29:33.313Z,17.70
2022-10-22T14:34:37.411Z,23.27
2022-10-22T14:39:47.057Z,9.60
2022-10-22T14:44:51.231Z,17.80
2022-10-22T14:49:55.423Z,12.70
2022-10-22T14:55:01.092Z,15.27
2022-10-22T15:00:06.343Z,19.77
2022-10-22T15:05:10.495Z,14.25
2022-10-22T15:10:17.904Z,32.90
2022-10-22T15:15:22.864Z,23.48
2022-10-22T15:20:29.037Z,54.25
2022-10-22T15:25:36.581Z,44.53
2022-10-22T15:30:42.862Z,32.43
2022-10-22T15:35:48.306Z,32.88
2022-10-22T15:41:05.288Z,23.60
2022-10-22T15:46:13.045Z,39.22
2022-10-22T15:51:28.101Z,48.85
2022-10-22T15:56:34.077Z,35.30
2022-10-22T16:01:41.667Z,36.28
2022-10-22T16:06:50.468Z,124.40
2022-10-22T16:11:57.788Z,80.53
2022-10-22T16:17:02.153Z,76.75
2022-10-22T16:22:11.972Z,76.00
2022-10-22T16:27:17.368Z,83.25
2022-10-22T16:32:21.366Z,57.38
2022-10-22T16:37:25.399Z,61.42
2022-10-22T16:42:31.057Z,66.95
2022-10-22T16:47:37.502Z,47.00
2022-10-22T16:52:43.881Z,41.83
2022-10-22T16:57:53.719Z,39.70
2022-10-22T17:02:59.122Z,35.28
2022-10-22T17:08:03.500Z,44.70
2022-10-22T17:13:09.148Z,43.03
2022-10-22T17:18:14.072Z,47.42
2022-10-22T17:23:19.263Z,36.78
2022-10-22T17:28:26.183Z,29.42
2022-10-22T17:33:31.647Z,28.50
2022-10-22T17:38:36.965Z,24.48
2022-10-22T17:48:58.720Z,19.00
2022-10-22T17:54:05.921Z,24.27
2022-10-22T17:59:18.107Z,27.67
2022-10-22T18:04:26.309Z,40.83
2022-10-22T18:09:30.571Z,14.18
2022-10-22T18:14:36.414Z,30.33
2022-10-22T18:19:41.482Z,32.80
2022-10-22T18:24:45.733Z,21.83
2022-10-22T18:29:52.345Z,16.50
2022-10-22T18:34:56.562Z,14.40
2022-10-22T18:40:00.576Z,19.13
2022-10-22T18:45:07.136Z,19.08
2022-10-22T18:50:12.255Z,22.35
2022-10-22T18:55:16.609Z,21.42
2022-10-22T19:00:22.923Z,40.30
2022-10-22T19:05:27.592Z,38.15
2022-10-22T19:10:31.642Z,24.70
2022-10-22T19:15:40.616Z,24.08
2022-10-22T19:20:49.329Z,62.40
2022-10-22T19:26:02.131Z,23.17
2022-10-22T19:31:09.285Z,17.10
2022-10-22T19:36:15.380Z,15.45
2022-10-22T19:41:21.455Z,15.07
2022-10-22T19:46:29.082Z,17.02
2022-10-22T19:51:34.851Z,31.50
2022-10-22T19:56:41.517Z,36.05
2022-10-22T20:01:48.263Z,24.40
2022-10-22T20:06:52.809Z,20.13
2022-10-22T20:11:57.038Z,20.38
2022-10-22T20:17:02.686Z,14.25
2022-10-22T20:22:06.759Z,16.08
2022-10-22T20:27:11.101Z,17.17
2022-10-22T20:32:17.915Z,20.63
2022-10-22T20:37:22.707Z,26.52
2022-10-22T20:42:26.803Z,25.95
2022-10-22T20:47:44.417Z,18.35
2022-10-22T20:52:56.637Z,16.20
2022-10-22T20:58:02.231Z,20.67
2022-10-22T21:03:08.012Z,25.85
2022-10-22T21:08:19.646Z,21.83
2022-10-22T21:13:23.823Z,17.63
2022-10-22T21:18:29.841Z,17.88
2022-10-22T21:23:37.781Z,15.23
2022-10-22T21:28:41.863Z,12.60
2022-10-22T21:33:47.632Z,14.18
2022-10-22T21:38:54.802Z,19.30
2022-10-22T21:44:00.138Z,13.65
2022-10-22T21:49:06.055Z,19.67
2022-10-22T21:54:12.374Z,23.83
2022-10-22T21:59:16.325Z,21.98
2022-10-22T22:04:21.654Z,27.27
2022-10-22T22:09:25.715Z,19.70
2022-10-22T22:14:30.745Z,24.58
2022-10-22T22:19:36.168Z,19.60
2022-10-22T22:24:40.946Z,20.40
2022-10-22T22:29:45.446Z,24.10
2022-10-22T22:34:50.821Z,24.88
2022-10-22T22:39:55.110Z,39.20
2022-10-22T22:44:59.736Z,23.42
2022-10-22T22:50:06.028Z,14.93
2022-10-22T22:55:11.014Z,16.13
2022-10-22T23:00:15.608Z,29.40
2022-10-22T23:05:21.008Z,21.25
2022-10-22T23:10:25.413Z,20.38
2022-10-22T23:15:29.807Z,13.93
2022-10-22T23:20:39.471Z,17.58
2022-10-22T23:25:43.430Z,22.55
2022-10-22T23:30:47.440Z,19.63
2022-10-22T23:35:52.945Z,33.88
2022-10-22T23:40:58.200Z,31.38
2022-10-22T23:46:02.408Z,19.08
2022-10-22T23:51:09.346Z,19.65
2022-10-22T23:56:16.762Z,16.30
